Webcam

2021/04/18 13:50 EBBR 181350Z 33004KT 270V010 CAVOK 13/01 Q1022 NOSIG

Webcam

--- Refresh now ---